sensor_id;sensor_type;location;lat;lon;timestamp;temperature;humidity
30379;DHT22;17168;49.164;9.060;2023-04-03T00:00:20;6.60;74.50
30379;DHT22;17168;49.164;9.060;2023-04-03T00:02:52;6.60;74.60
30379;DHT22;17168;49.164;9.060;2023-04-03T00:05:24;6.60;74.90
30379;DHT22;17168;49.164;9.060;2023-04-03T00:07:57;6.60;76.20
30379;DHT22;17168;49.164;9.060;2023-04-03T00:10:31;6.60;75.70
30379;DHT22;17168;49.164;9.060;2023-04-03T00:13:04;6.60;76.80
30379;DHT22;17168;49.164;9.060;2023-04-03T00:15:37;6.60;77.90
30379;DHT22;17168;49.164;9.060;2023-04-03T00:18:10;6.60;79.30
30379;DHT22;17168;49.164;9.060;2023-04-03T00:20:42;6.60;80.80
30379;DHT22;17168;49.164;9.060;2023-04-03T00:23:14;6.60;83.80
30379;DHT22;17168;49.164;9.060;2023-04-03T00:25:49;6.50;78.40
30379;DHT22;17168;49.164;9.060;2023-04-03T00:28:21;6.50;79.40
30379;DHT22;17168;49.164;9.060;2023-04-03T00:30:54;6.50;84.10
30379;DHT22;17168;49.164;9.060;2023-04-03T00:33:26;6.50;85.90
30379;DHT22;17168;49.164;9.060;2023-04-03T00:35:58;6.50;86.90
30379;DHT22;17168;49.164;9.060;2023-04-03T00:38:31;6.50;88.30
30379;DHT22;17168;49.164;9.060;2023-04-03T00:41:06;6.50;90.00
30379;DHT22;17168;49.164;9.060;2023-04-03T00:43:38;6.40;90.40
30379;DHT22;17168;49.164;9.060;2023-04-03T00:46:11;6.40;90.70
30379;DHT22;17168;49.164;9.060;2023-04-03T00:48:45;6.40;91.20
30379;DHT22;17168;49.164;9.060;2023-04-03T00:51:20;6.40;91.60
30379;DHT22;17168;49.164;9.060;2023-04-03T00:53:58;6.40;92.10
30379;DHT22;17168;49.164;9.060;2023-04-03T00:56:33;6.30;92.20
30379;DHT22;17168;49.164;9.060;2023-04-03T00:59:10;6.30;92.50
30379;DHT22;17168;49.164;9.060;2023-04-03T01:01:44;6.30;93.00
30379;DHT22;17168;49.164;9.060;2023-04-03T01:07:04;6.50;95.90
30379;DHT22;17168;49.164;9.060;2023-04-03T01:09:37;6.20;91.70
30379;DHT22;17168;49.164;9.060;2023-04-03T01:12:16;6.20;90.10
30379;DHT22;17168;49.164;9.060;2023-04-03T01:14:51;6.20;90.00
30379;DHT22;17168;49.164;9.060;2023-04-03T01:17:28;6.10;90.20
30379;DHT22;17168;49.164;9.060;2023-04-03T01:23:27;6.00;94.90
30379;DHT22;17168;49.164;9.060;2023-04-03T01:26:02;6.00;94.60
30379;DHT22;17168;49.164;9.060;2023-04-03T01:28:37;6.00;94.10
30379;DHT22;17168;49.164;9.060;2023-04-03T01:31:15;6.00;93.50
30379;DHT22;17168;49.164;9.060;2023-04-03T01:33:51;6.00;94.60
30379;DHT22;17168;49.164;9.060;2023-04-03T01:36:25;6.00;94.20
30379;DHT22;17168;49.164;9.060;2023-04-03T01:38:59;6.00;92.80
30379;DHT22;17168;49.164;9.060;2023-04-03T01:41:31;6.00;93.10
30379;DHT22;17168;49.164;9.060;2023-04-03T01:44:04;6.00;93.60
30379;DHT22;17168;49.164;9.060;2023-04-03T01:49:12;6.30;94.40
30379;DHT22;17168;49.164;9.060;2023-04-03T01:51:44;6.50;95.20
30379;DHT22;17168;49.164;9.060;2023-04-03T01:54:16;5.90;93.60
30379;DHT22;17168;49.164;9.060;2023-04-03T01:56:48;5.90;92.00
30379;DHT22;17168;49.164;9.060;2023-04-03T01:59:20;5.90;92.20
30379;DHT22;17168;49.164;9.060;2023-04-03T02:01:52;5.90;95.70
30379;DHT22;17168;49.164;9.060;2023-04-03T02:04:27;6.00;94.90
30379;DHT22;17168;49.164;9.060;2023-04-03T02:06:59;5.90;94.40
30379;DHT22;17168;49.164;9.060;2023-04-03T02:09:31;6.10;94.00
30379;DHT22;17168;49.164;9.060;2023-04-03T02:12:03;5.90;93.20
30379;DHT22;17168;49.164;9.060;2023-04-03T02:14:35;5.90;94.20
30379;DHT22;17168;49.164;9.060;2023-04-03T02:17:07;5.90;94.70
30379;DHT22;17168;49.164;9.060;2023-04-03T02:19:43;5.70;95.80
30379;DHT22;17168;49.164;9.060;2023-04-03T02:22:15;6.60;96.20
30379;DHT22;17168;49.164;9.060;2023-04-03T02:24:47;6.00;96.00
30379;DHT22;17168;49.164;9.060;2023-04-03T02:29:52;6.60;95.50
30379;DHT22;17168;49.164;9.060;2023-04-03T02:32:24;6.00;95.50
30379;DHT22;17168;49.164;9.060;2023-04-03T02:34:59;6.00;92.90
30379;DHT22;17168;49.164;9.060;2023-04-03T02:37:31;6.00;92.60
30379;DHT22;17168;49.164;9.060;2023-04-03T02:40:05;6.00;92.40
30379;DHT22;17168;49.164;9.060;2023-04-03T02:42:37;6.00;92.40
30379;DHT22;17168;49.164;9.060;2023-04-03T02:45:10;6.10;92.80
30379;DHT22;17168;49.164;9.060;2023-04-03T02:47:42;6.10;93.10
30379;DHT22;17168;49.164;9.060;2023-04-03T02:50:17;6.10;94.30
30379;DHT22;17168;49.164;9.060;2023-04-03T02:52:49;6.10;92.90
30379;DHT22;17168;49.164;9.060;2023-04-03T02:55:21;6.10;92.10
30379;DHT22;17168;49.164;9.060;2023-04-03T02:57:53;6.10;92.10
30379;DHT22;17168;49.164;9.060;2023-04-03T03:00:25;6.00;91.90
30379;DHT22;17168;49.164;9.060;2023-04-03T03:02:58;6.10;92.10
30379;DHT22;17168;49.164;9.060;2023-04-03T03:05:33;6.10;92.00
30379;DHT22;17168;49.164;9.060;2023-04-03T03:08:05;6.10;92.20
30379;DHT22;17168;49.164;9.060;2023-04-03T03:10:37;6.10;92.50
30379;DHT22;17168;49.164;9.060;2023-04-03T03:13:10;6.20;94.70
30379;DHT22;17168;49.164;9.060;2023-04-03T03:15:42;6.10;95.70
30379;DHT22;17168;49.164;9.060;2023-04-03T03:18:14;6.80;94.20
30379;DHT22;17168;49.164;9.060;2023-04-03T03:20:50;6.10;93.80
30379;DHT22;17168;49.164;9.060;2023-04-03T03:23:24;6.20;93.80
30379;DHT22;17168;49.164;9.060;2023-04-03T03:25:57;6.20;94.50
30379;DHT22;17168;49.164;9.060;2023-04-03T03:28:31;6.20;94.20
30379;DHT22;17168;49.164;9.060;2023-04-03T03:31:03;6.20;92.60
30379;DHT22;17168;49.164;9.060;2023-04-03T03:33:36;6.20;92.30
30379;DHT22;17168;49.164;9.060;2023-04-03T03:36:11;6.20;92.20
30379;DHT22;17168;49.164;9.060;2023-04-03T03:38:43;6.20;91.90
30379;DHT22;17168;49.164;9.060;2023-04-03T03:41:15;6.20;91.90
30379;DHT22;17168;49.164;9.060;2023-04-03T03:43:47;6.20;91.70
30379;DHT22;17168;49.164;9.060;2023-04-03T03:46:19;6.10;91.70
30379;DHT22;17168;49.164;9.060;2023-04-03T03:48:51;6.10;91.70
30379;DHT22;17168;49.164;9.060;2023-04-03T03:51:26;6.10;91.70
30379;DHT22;17168;49.164;9.060;2023-04-03T03:53:58;6.00;91.70
30379;DHT22;17168;49.164;9.060;2023-04-03T03:56:30;6.00;91.60
30379;DHT22;17168;49.164;9.060;2023-04-03T03:59:02;6.00;91.80
30379;DHT22;17168;49.164;9.060;2023-04-03T04:01:34;5.90;91.80
30379;DHT22;17168;49.164;9.060;2023-04-03T04:04:07;5.80;91.70
30379;DHT22;17168;49.164;9.060;2023-04-03T04:06:41;5.80;91.50
30379;DHT22;17168;49.164;9.060;2023-04-03T04:09:13;5.80;91.50
30379;DHT22;17168;49.164;9.060;2023-04-03T04:11:46;5.70;91.90
30379;DHT22;17168;49.164;9.060;2023-04-03T04:14:18;5.70;92.40
30379;DHT22;17168;49.164;9.060;2023-04-03T04:16:52;5.60;92.50
30379;DHT22;17168;49.164;9.060;2023-04-03T04:19:24;5.50;92.50
30379;DHT22;17168;49.164;9.060;2023-04-03T04:21:59;5.50;92.70
30379;DHT22;17168;49.164;9.060;2023-04-03T04:24:31;5.50;94.90
30379;DHT22;17168;49.164;9.060;2023-04-03T04:32:11;6.00;95.80
30379;DHT22;17168;49.164;9.060;2023-04-03T04:34:43;5.40;96.10
30379;DHT22;17168;49.164;9.060;2023-04-03T04:37:18;5.30;96.10
30379;DHT22;17168;49.164;9.060;2023-04-03T04:39:50;5.30;96.30
30379;DHT22;17168;49.164;9.060;2023-04-03T04:44:55;5.20;95.80
30379;DHT22;17168;49.164;9.060;2023-04-03T04:47:28;5.10;94.80
30379;DHT22;17168;49.164;9.060;2023-04-03T04:50:00;5.20;94.30
30379;DHT22;17168;49.164;9.060;2023-04-03T04:52:35;5.10;93.00
30379;DHT22;17168;49.164;9.060;2023-04-03T04:55:08;5.10;93.10
30379;DHT22;17168;49.164;9.060;2023-04-03T04:57:40;5.10;93.60
30379;DHT22;17168;49.164;9.060;2023-04-03T05:00:13;5.10;94.80
30379;DHT22;17168;49.164;9.060;2023-04-03T05:05:19;5.20;94.20
30379;DHT22;17168;49.164;9.060;2023-04-03T05:07:53;5.10;93.90
30379;DHT22;17168;49.164;9.060;2023-04-03T05:10:25;5.10;94.40
30379;DHT22;17168;49.164;9.060;2023-04-03T05:12:57;5.10;96.40
30379;DHT22;17168;49.164;9.060;2023-04-03T05:15:29;5.10;95.70
30379;DHT22;17168;49.164;9.060;2023-04-03T05:18:01;5.10;93.80
30379;DHT22;17168;49.164;9.060;2023-04-03T05:20:34;5.10;93.90
30379;DHT22;17168;49.164;9.060;2023-04-03T05:23:09;5.10;94.20
30379;DHT22;17168;49.164;9.060;2023-04-03T05:25:41;5.10;96.10
30379;DHT22;17168;49.164;9.060;2023-04-03T05:28:15;5.10;96.80
30379;DHT22;17168;49.164;9.060;2023-04-03T05:30:53;5.90;95.20
30379;DHT22;17168;49.164;9.060;2023-04-03T05:33:26;5.10;94.70
30379;DHT22;17168;49.164;9.060;2023-04-03T05:36:02;5.10;94.70
30379;DHT22;17168;49.164;9.060;2023-04-03T05:38:38;5.10;94.60
30379;DHT22;17168;49.164;9.060;2023-04-03T05:41:10;5.10;95.40
30379;DHT22;17168;49.164;9.060;2023-04-03T05:43:42;5.20;94.60
30379;DHT22;17168;49.164;9.060;2023-04-03T05:46:16;5.20;94.30
30379;DHT22;17168;49.164;9.060;2023-04-03T05:48:49;5.20;94.60
30379;DHT22;17168;49.164;9.060;2023-04-03T05:51:23;5.20;95.90
30379;DHT22;17168;49.164;9.060;2023-04-03T05:54:03;5.20;95.30
30379;DHT22;17168;49.164;9.060;2023-04-03T05:56:37;5.20;95.00
30379;DHT22;17168;49.164;9.060;2023-04-03T05:59:09;5.20;95.20
30379;DHT22;17168;49.164;9.060;2023-04-03T06:01:42;5.20;97.00
30379;DHT22;17168;49.164;9.060;2023-04-03T06:06:51;5.20;97.80
30379;DHT22;17168;49.164;9.060;2023-04-03T06:09:27;5.20;97.20
30379;DHT22;17168;49.164;9.060;2023-04-03T06:12:01;5.30;97.10
30379;DHT22;17168;49.164;9.060;2023-04-03T06:14:33;5.30;96.90
30379;DHT22;17168;49.164;9.060;2023-04-03T06:17:06;5.30;96.90
30379;DHT22;17168;49.164;9.060;2023-04-03T06:19:39;5.30;96.70
30379;DHT22;17168;49.164;9.060;2023-04-03T06:22:11;5.30;96.90
30379;DHT22;17168;49.164;9.060;2023-04-03T06:24:46;5.40;97.10
30379;DHT22;17168;49.164;9.060;2023-04-03T06:27:18;5.40;97.20
30379;DHT22;17168;49.164;9.060;2023-04-03T06:29:50;5.40;97.70
30379;DHT22;17168;49.164;9.060;2023-04-03T06:32:22;5.30;98.00
30379;DHT22;17168;49.164;9.060;2023-04-03T06:42:43;5.30;97.20
30379;DHT22;17168;49.164;9.060;2023-04-03T06:45:15;5.40;95.30
30379;DHT22;17168;49.164;9.060;2023-04-03T06:47:47;5.40;95.00
30379;DHT22;17168;49.164;9.060;2023-04-03T06:50:19;5.40;94.80
30379;DHT22;17168;49.164;9.060;2023-04-03T06:52:52;5.40;95.00
30379;DHT22;17168;49.164;9.060;2023-04-03T06:55:26;5.40;95.10
30379;DHT22;17168;49.164;9.060;2023-04-03T06:57:59;5.40;95.40
30379;DHT22;17168;49.164;9.060;2023-04-03T07:00:32;5.40;95.60
30379;DHT22;17168;49.164;9.060;2023-04-03T07:03:04;5.40;95.70
30379;DHT22;17168;49.164;9.060;2023-04-03T07:05:37;5.40;95.80
30379;DHT22;17168;49.164;9.060;2023-04-03T07:08:09;5.40;95.80
30379;DHT22;17168;49.164;9.060;2023-04-03T07:10:44;5.50;96.10
30379;DHT22;17168;49.164;9.060;2023-04-03T07:13:16;5.50;96.20
30379;DHT22;17168;49.164;9.060;2023-04-03T07:15:49;5.50;96.50
30379;DHT22;17168;49.164;9.060;2023-04-03T07:18:22;5.50;97.40
30379;DHT22;17168;49.164;9.060;2023-04-03T07:20:55;5.60;97.90
30379;DHT22;17168;49.164;9.060;2023-04-03T07:23:27;5.60;98.40
30379;DHT22;17168;49.164;9.060;2023-04-03T07:26:02;5.60;98.30
30379;DHT22;17168;49.164;9.060;2023-04-03T07:28:34;5.70;98.00
30379;DHT22;17168;49.164;9.060;2023-04-03T07:31:08;5.70;97.40
30379;DHT22;17168;49.164;9.060;2023-04-03T07:33:43;5.80;97.20
30379;DHT22;17168;49.164;9.060;2023-04-03T07:36:17;5.80;96.90
30379;DHT22;17168;49.164;9.060;2023-04-03T07:38:50;5.90;96.70
30379;DHT22;17168;49.164;9.060;2023-04-03T07:41:25;5.90;96.60
30379;DHT22;17168;49.164;9.060;2023-04-03T07:43:57;6.00;96.60
30379;DHT22;17168;49.164;9.060;2023-04-03T07:46:29;6.00;96.60
30379;DHT22;17168;49.164;9.060;2023-04-03T07:49:01;6.10;96.50
30379;DHT22;17168;49.164;9.060;2023-04-03T07:51:33;6.10;94.90
30379;DHT22;17168;49.164;9.060;2023-04-03T07:54:06;6.20;94.40
30379;DHT22;17168;49.164;9.060;2023-04-03T07:56:41;6.30;94.20
30379;DHT22;17168;49.164;9.060;2023-04-03T07:59:14;6.40;94.20
30379;DHT22;17168;49.164;9.060;2023-04-03T08:01:46;6.40;94.10
30379;DHT22;17168;49.164;9.060;2023-04-03T08:04:19;6.50;94.00
30379;DHT22;17168;49.164;9.060;2023-04-03T08:06:51;6.50;93.80
30379;DHT22;17168;49.164;9.060;2023-04-03T08:09:24;6.60;93.60
30379;DHT22;17168;49.164;9.060;2023-04-03T08:11:58;6.70;93.60
30379;DHT22;17168;49.164;9.060;2023-04-03T08:14:31;6.70;93.50
30379;DHT22;17168;49.164;9.060;2023-04-03T08:17:03;6.80;93.40
30379;DHT22;17168;49.164;9.060;2023-04-03T08:19:36;6.80;93.30
30379;DHT22;17168;49.164;9.060;2023-04-03T08:22:09;6.80;93.10
30379;DHT22;17168;49.164;9.060;2023-04-03T08:24:41;6.90;93.00
30379;DHT22;17168;49.164;9.060;2023-04-03T08:27:32;6.90;92.90
30379;DHT22;17168;49.164;9.060;2023-04-03T08:30:08;6.90;92.90
30379;DHT22;17168;49.164;9.060;2023-04-03T08:32:40;7.00;92.80
30379;DHT22;17168;49.164;9.060;2023-04-03T08:35:16;7.00;92.70
30379;DHT22;17168;49.164;9.060;2023-04-03T08:37:48;7.10;92.80
30379;DHT22;17168;49.164;9.060;2023-04-03T08:40:20;7.10;92.80
30379;DHT22;17168;49.164;9.060;2023-04-03T08:43:04;7.20;92.70
30379;DHT22;17168;49.164;9.060;2023-04-03T08:45:45;7.20;92.60
30379;DHT22;17168;49.164;9.060;2023-04-03T08:48:20;7.20;92.60
30379;DHT22;17168;49.164;9.060;2023-04-03T08:50:57;7.30;92.50
30379;DHT22;17168;49.164;9.060;2023-04-03T08:53:35;7.40;92.50
30379;DHT22;17168;49.164;9.060;2023-04-03T08:56:12;7.40;92.50
30379;DHT22;17168;49.164;9.060;2023-04-03T08:58:52;7.40;92.30
30379;DHT22;17168;49.164;9.060;2023-04-03T09:01:33;7.40;92.20
30379;DHT22;17168;49.164;9.060;2023-04-03T09:04:11;7.50;92.20
30379;DHT22;17168;49.164;9.060;2023-04-03T09:06:48;7.50;92.20
30379;DHT22;17168;49.164;9.060;2023-04-03T09:09:30;7.50;92.20
30379;DHT22;17168;49.164;9.060;2023-04-03T09:12:12;7.60;92.10
30379;DHT22;17168;49.164;9.060;2023-04-03T09:14:57;7.60;92.00
30379;DHT22;17168;49.164;9.060;2023-04-03T09:17:41;7.60;91.90
30379;DHT22;17168;49.164;9.060;2023-04-03T09:20:21;7.70;92.00
30379;DHT22;17168;49.164;9.060;2023-04-03T09:22:56;7.80;91.90
30379;DHT22;17168;49.164;9.060;2023-04-03T09:25:32;7.80;91.80
30379;DHT22;17168;49.164;9.060;2023-04-03T09:28:05;7.90;91.70
30379;DHT22;17168;49.164;9.060;2023-04-03T09:30:44;7.90;91.60
30379;DHT22;17168;49.164;9.060;2023-04-03T09:33:17;7.90;91.60
30379;DHT22;17168;49.164;9.060;2023-04-03T09:35:50;8.00;91.50
30379;DHT22;17168;49.164;9.060;2023-04-03T09:38:23;8.00;91.40
30379;DHT22;17168;49.164;9.060;2023-04-03T09:41:04;8.00;91.30
30379;DHT22;17168;49.164;9.060;2023-04-03T09:43:37;8.10;91.30
30379;DHT22;17168;49.164;9.060;2023-04-03T09:46:25;8.10;91.30
30379;DHT22;17168;49.164;9.060;2023-04-03T09:49:01;8.20;91.20
30379;DHT22;17168;49.164;9.060;2023-04-03T09:51:38;8.30;91.20
30379;DHT22;17168;49.164;9.060;2023-04-03T09:54:40;8.30;91.10
30379;DHT22;17168;49.164;9.060;2023-04-03T09:57:13;8.40;91.00
30379;DHT22;17168;49.164;9.060;2023-04-03T09:59:47;8.40;90.90
30379;DHT22;17168;49.164;9.060;2023-04-03T10:02:36;8.50;90.70
30379;DHT22;17168;49.164;9.060;2023-04-03T10:05:28;8.50;90.60
30379;DHT22;17168;49.164;9.060;2023-04-03T10:08:10;8.60;90.50
30379;DHT22;17168;49.164;9.060;2023-04-03T10:10:44;8.60;90.50
30379;DHT22;17168;49.164;9.060;2023-04-03T10:13:18;8.70;90.50
30379;DHT22;17168;49.164;9.060;2023-04-03T10:15:59;8.70;90.40
30379;DHT22;17168;49.164;9.060;2023-04-03T10:18:40;8.80;90.30
30379;DHT22;17168;49.164;9.060;2023-04-03T10:21:19;8.90;90.20
30379;DHT22;17168;49.164;9.060;2023-04-03T10:24:06;8.90;90.10
30379;DHT22;17168;49.164;9.060;2023-04-03T10:26:47;8.90;89.80
30379;DHT22;17168;49.164;9.060;2023-04-03T10:29:27;9.00;89.60
30379;DHT22;17168;49.164;9.060;2023-04-03T10:32:16;9.00;89.50
30379;DHT22;17168;49.164;9.060;2023-04-03T10:34:58;9.00;89.30
30379;DHT22;17168;49.164;9.060;2023-04-03T10:37:46;9.00;89.60
30379;DHT22;17168;49.164;9.060;2023-04-03T10:40:28;9.10;89.00
30379;DHT22;17168;49.164;9.060;2023-04-03T10:43:10;9.10;88.80
30379;DHT22;17168;49.164;9.060;2023-04-03T10:45:52;9.10;88.70
30379;DHT22;17168;49.164;9.060;2023-04-03T10:48:33;9.20;88.70
30379;DHT22;17168;49.164;9.060;2023-04-03T10:51:20;9.20;88.40
30379;DHT22;17168;49.164;9.060;2023-04-03T10:53:57;9.20;88.40
30379;DHT22;17168;49.164;9.060;2023-04-03T10:56:35;9.20;88.20
30379;DHT22;17168;49.164;9.060;2023-04-03T10:59:17;9.20;87.90
30379;DHT22;17168;49.164;9.060;2023-04-03T11:01:53;9.30;87.70
30379;DHT22;17168;49.164;9.060;2023-04-03T11:04:28;9.40;87.60
30379;DHT22;17168;49.164;9.060;2023-04-03T11:07:08;9.40;87.60
30379;DHT22;17168;49.164;9.060;2023-04-03T11:09:45;9.50;87.70
30379;DHT22;17168;49.164;9.060;2023-04-03T11:12:23;9.60;87.60
30379;DHT22;17168;49.164;9.060;2023-04-03T11:14:56;9.70;87.60
30379;DHT22;17168;49.164;9.060;2023-04-03T11:17:34;9.80;87.30
30379;DHT22;17168;49.164;9.060;2023-04-03T11:20:14;9.80;86.70
30379;DHT22;17168;49.164;9.060;2023-04-03T11:22:54;9.80;86.40
30379;DHT22;17168;49.164;9.060;2023-04-03T11:25:31;9.70;86.30
30379;DHT22;17168;49.164;9.060;2023-04-03T11:28:09;9.80;86.20
30379;DHT22;17168;49.164;9.060;2023-04-03T11:30:49;9.80;86.20
30379;DHT22;17168;49.164;9.060;2023-04-03T11:33:33;9.90;86.60
30379;DHT22;17168;49.164;9.060;2023-04-03T11:36:10;9.90;85.90
30379;DHT22;17168;49.164;9.060;2023-04-03T11:39:07;10.00;86.20
30379;DHT22;17168;49.164;9.060;2023-04-03T11:41:42;10.00;86.30
30379;DHT22;17168;49.164;9.060;2023-04-03T11:44:33;10.00;86.20
30379;DHT22;17168;49.164;9.060;2023-04-03T11:47:07;10.00;85.80
30379;DHT22;17168;49.164;9.060;2023-04-03T11:50:05;10.00;85.50
30379;DHT22;17168;49.164;9.060;2023-04-03T11:52:59;10.00;85.10
30379;DHT22;17168;49.164;9.060;2023-04-03T11:55:56;9.90;84.90
30379;DHT22;17168;49.164;9.060;2023-04-03T11:58:31;10.00;85.30
30379;DHT22;17168;49.164;9.060;2023-04-03T12:01:09;10.10;85.20
30379;DHT22;17168;49.164;9.060;2023-04-03T12:04:05;10.10;85.70
30379;DHT22;17168;49.164;9.060;2023-04-03T12:10:15;10.20;87.30
30379;DHT22;17168;49.164;9.060;2023-04-03T12:13:16;10.30;87.10
30379;DHT22;17168;49.164;9.060;2023-04-03T12:15:52;10.30;86.70
30379;DHT22;17168;49.164;9.060;2023-04-03T12:18:43;10.30;87.00
30379;DHT22;17168;49.164;9.060;2023-04-03T12:21:16;10.40;89.20
30379;DHT22;17168;49.164;9.060;2023-04-03T12:32:06;11.10;95.20
30379;DHT22;17168;49.164;9.060;2023-04-03T12:34:53;11.40;78.00
30379;DHT22;17168;49.164;9.060;2023-04-03T12:37:40;11.50;76.50
30379;DHT22;17168;49.164;9.060;2023-04-03T12:40:19;11.40;76.60
30379;DHT22;17168;49.164;9.060;2023-04-03T12:43:06;11.40;75.50
30379;DHT22;17168;49.164;9.060;2023-04-03T12:45:47;11.30;75.20
30379;DHT22;17168;49.164;9.060;2023-04-03T12:48:25;11.30;75.20
30379;DHT22;17168;49.164;9.060;2023-04-03T12:50:58;11.30;74.80
30379;DHT22;17168;49.164;9.060;2023-04-03T12:53:33;11.30;74.50
30379;DHT22;17168;49.164;9.060;2023-04-03T12:56:20;11.20;73.90
30379;DHT22;17168;49.164;9.060;2023-04-03T13:01:29;11.80;90.90
30379;DHT22;17168;49.164;9.060;2023-04-03T13:04:01;12.50;77.70
30379;DHT22;17168;49.164;9.060;2023-04-03T13:06:38;12.90;76.60
30379;DHT22;17168;49.164;9.060;2023-04-03T13:09:20;13.10;79.30
30379;DHT22;17168;49.164;9.060;2023-04-03T13:11:57;13.00;75.60
30379;DHT22;17168;49.164;9.060;2023-04-03T13:14:33;12.90;73.10
30379;DHT22;17168;49.164;9.060;2023-04-03T13:17:12;12.70;71.70
30379;DHT22;17168;49.164;9.060;2023-04-03T13:19:46;12.50;70.50
30379;DHT22;17168;49.164;9.060;2023-04-03T13:22:27;12.40;70.00
30379;DHT22;17168;49.164;9.060;2023-04-03T13:25:06;12.20;69.10
30379;DHT22;17168;49.164;9.060;2023-04-03T13:27:39;12.20;69.10
30379;DHT22;17168;49.164;9.060;2023-04-03T13:30:23;12.10;68.40
30379;DHT22;17168;49.164;9.060;2023-04-03T13:33:01;12.10;67.80
30379;DHT22;17168;49.164;9.060;2023-04-03T13:35:37;12.10;67.60
30379;DHT22;17168;49.164;9.060;2023-04-03T13:38:23;12.10;67.40
30379;DHT22;17168;49.164;9.060;2023-04-03T13:40:58;12.10;66.90
30379;DHT22;17168;49.164;9.060;2023-04-03T13:43:34;12.00;66.70
30379;DHT22;17168;49.164;9.060;2023-04-03T13:46:22;12.00;66.30
30379;DHT22;17168;49.164;9.060;2023-04-03T13:48:57;12.00;65.80
30379;DHT22;17168;49.164;9.060;2023-04-03T13:51:30;12.00;65.80
30379;DHT22;17168;49.164;9.060;2023-04-03T13:54:16;11.90;65.40
30379;DHT22;17168;49.164;9.060;2023-04-03T13:56:53;11.80;64.80
30379;DHT22;17168;49.164;9.060;2023-04-03T13:59:29;11.70;64.40
30379;DHT22;17168;49.164;9.060;2023-04-03T14:02:16;11.80;64.70
30379;DHT22;17168;49.164;9.060;2023-04-03T14:04:53;11.90;64.20
30379;DHT22;17168;49.164;9.060;2023-04-03T14:07:30;11.90;64.30
30379;DHT22;17168;49.164;9.060;2023-04-03T14:10:04;11.90;64.80
30379;DHT22;17168;49.164;9.060;2023-04-03T14:12:38;11.90;64.00
30379;DHT22;17168;49.164;9.060;2023-04-03T14:15:18;11.90;63.60
30379;DHT22;17168;49.164;9.060;2023-04-03T14:17:51;11.90;63.50
30379;DHT22;17168;49.164;9.060;2023-04-03T14:20:27;12.00;63.20
30379;DHT22;17168;49.164;9.060;2023-04-03T14:22:59;12.20;63.00
30379;DHT22;17168;49.164;9.060;2023-04-03T14:25:31;12.60;63.30
30379;DHT22;17168;49.164;9.060;2023-04-03T14:28:14;13.10;63.40
30379;DHT22;17168;49.164;9.060;2023-04-03T14:30:47;13.60;68.80
30379;DHT22;17168;49.164;9.060;2023-04-03T14:33:21;14.10;72.30
30379;DHT22;17168;49.164;9.060;2023-04-03T14:35:56;14.40;73.80
30379;DHT22;17168;49.164;9.060;2023-04-03T14:38:30;14.20;79.50
30379;DHT22;17168;49.164;9.060;2023-04-03T14:41:02;14.30;77.20
30379;DHT22;17168;49.164;9.060;2023-04-03T14:43:48;14.20;77.40
30379;DHT22;17168;49.164;9.060;2023-04-03T14:46:24;14.20;78.30
30379;DHT22;17168;49.164;9.060;2023-04-03T14:49:13;15.10;81.20
30379;DHT22;17168;49.164;9.060;2023-04-03T14:51:49;14.70;63.40
30379;DHT22;17168;49.164;9.060;2023-04-03T14:54:22;14.70;64.10
30379;DHT22;17168;49.164;9.060;2023-04-03T14:56:59;14.70;62.80
30379;DHT22;17168;49.164;9.060;2023-04-03T14:59:32;14.80;62.60
30379;DHT22;17168;49.164;9.060;2023-04-03T15:02:13;15.00;64.20
30379;DHT22;17168;49.164;9.060;2023-04-03T15:04:54;15.20;68.20
30379;DHT22;17168;49.164;9.060;2023-04-03T15:07:31;15.30;62.70
30379;DHT22;17168;49.164;9.060;2023-04-03T15:10:15;15.30;62.20
30379;DHT22;17168;49.164;9.060;2023-04-03T15:12:48;15.30;61.40
30379;DHT22;17168;49.164;9.060;2023-04-03T15:15:21;15.10;61.30
30379;DHT22;17168;49.164;9.060;2023-04-03T15:17:55;15.00;60.60
30379;DHT22;17168;49.164;9.060;2023-04-03T15:20:30;14.90;60.30
30379;DHT22;17168;49.164;9.060;2023-04-03T15:23:08;14.70;59.60
30379;DHT22;17168;49.164;9.060;2023-04-03T15:25:40;14.50;59.20
30379;DHT22;17168;49.164;9.060;2023-04-03T15:28:19;14.40;59.10
30379;DHT22;17168;49.164;9.060;2023-04-03T15:30:54;14.50;59.20
30379;DHT22;17168;49.164;9.060;2023-04-03T15:33:26;14.50;59.20
30379;DHT22;17168;49.164;9.060;2023-04-03T15:35:59;14.60;58.80
30379;DHT22;17168;49.164;9.060;2023-04-03T15:38:45;14.60;58.20
30379;DHT22;17168;49.164;9.060;2023-04-03T15:41:17;14.70;57.90
30379;DHT22;17168;49.164;9.060;2023-04-03T15:43:49;14.70;57.60
30379;DHT22;17168;49.164;9.060;2023-04-03T15:46:21;14.60;57.30
30379;DHT22;17168;49.164;9.060;2023-04-03T15:48:55;14.50;57.30
30379;DHT22;17168;49.164;9.060;2023-04-03T15:51:27;14.40;57.30
30379;DHT22;17168;49.164;9.060;2023-04-03T15:54:02;14.40;57.20
30379;DHT22;17168;49.164;9.060;2023-04-03T15:56:34;14.50;57.10
30379;DHT22;17168;49.164;9.060;2023-04-03T15:59:06;14.50;57.20
30379;DHT22;17168;49.164;9.060;2023-04-03T16:01:39;14.50;56.90
30379;DHT22;17168;49.164;9.060;2023-04-03T16:04:15;14.50;56.80
30379;DHT22;17168;49.164;9.060;2023-04-03T16:06:52;14.50;56.80
30379;DHT22;17168;49.164;9.060;2023-04-03T16:09:27;14.40;57.10
30379;DHT22;17168;49.164;9.060;2023-04-03T16:12:03;14.30;56.80
30379;DHT22;17168;49.164;9.060;2023-04-03T16:14:35;14.20;56.80
30379;DHT22;17168;49.164;9.060;2023-04-03T16:17:07;14.10;56.60
30379;DHT22;17168;49.164;9.060;2023-04-03T16:19:39;13.90;56.70
30379;DHT22;17168;49.164;9.060;2023-04-03T16:22:11;13.80;56.20
30379;DHT22;17168;49.164;9.060;2023-04-03T16:24:56;13.70;56.00
30379;DHT22;17168;49.164;9.060;2023-04-03T16:27:33;13.40;55.50
30379;DHT22;17168;49.164;9.060;2023-04-03T16:30:07;13.30;57.20
30379;DHT22;17168;49.164;9.060;2023-04-03T16:32:40;13.20;60.30
30379;DHT22;17168;49.164;9.060;2023-04-03T16:35:12;13.00;60.10
30379;DHT22;17168;49.164;9.060;2023-04-03T16:37:44;12.90;61.40
30379;DHT22;17168;49.164;9.060;2023-04-03T16:40:25;12.80;60.10
30379;DHT22;17168;49.164;9.060;2023-04-03T16:42:57;12.80;59.00
30379;DHT22;17168;49.164;9.060;2023-04-03T16:45:29;12.70;59.00
30379;DHT22;17168;49.164;9.060;2023-04-03T16:48:02;12.70;58.90
30379;DHT22;17168;49.164;9.060;2023-04-03T16:50:36;12.70;59.40
30379;DHT22;17168;49.164;9.060;2023-04-03T16:53:08;12.60;58.90
30379;DHT22;17168;49.164;9.060;2023-04-03T16:55:43;12.60;58.90
30379;DHT22;17168;49.164;9.060;2023-04-03T16:58:16;12.50;59.40
30379;DHT22;17168;49.164;9.060;2023-04-03T17:00:48;12.50;58.20
30379;DHT22;17168;49.164;9.060;2023-04-03T17:03:21;12.40;59.20
30379;DHT22;17168;49.164;9.060;2023-04-03T17:05:55;12.30;62.20
30379;DHT22;17168;49.164;9.060;2023-04-03T17:08:27;12.20;64.40
30379;DHT22;17168;49.164;9.060;2023-04-03T17:11:02;12.20;65.80
30379;DHT22;17168;49.164;9.060;2023-04-03T17:13:34;12.10;67.60
30379;DHT22;17168;49.164;9.060;2023-04-03T17:16:08;12.10;66.10
30379;DHT22;17168;49.164;9.060;2023-04-03T17:18:42;12.00;66.80